Time;durP1;ratioP1;P1;durP2;ratioP2;P2;SDS_P1;SDS_P2;PMS_P1;PMS_P2;Temp;Humidity;BMP_temperature;BMP_pressure;BME280_temperature;BME280_humidity;BME280_pressure;Samples;Min_cycle;Max_cycle;Signal;HPM_P1;HPM_P2
2021/01/05 00:00:22;;;;;;;29.00;17.90;;;;;;;4.38;100.00;97264.41;5093532;28;20236;-68
2021/01/05 00:02:50;;;;;;;26.77;18.40;;;;;;;4.27;100.00;97261.13;5093198;28;20307;-69
2021/01/05 00:05:16;;;;;;;25.27;17.33;;;;;;;4.34;100.00;97257.97;5093419;28;20207;-69
2021/01/05 00:07:42;;;;;;;27.60;17.33;;;;;;;4.30;100.00;97255.06;5093551;28;20315;-68
2021/01/05 00:10:10;;;;;;;24.27;17.07;;;;;;;4.29;100.00;97256.16;5093423;28;20291;-70
2021/01/05 00:12:36;;;;;;;25.37;17.10;;;;;;;4.14;100.00;97265.59;5072984;28;20411;-70
2021/01/05 00:15:04;;;;;;;25.83;17.57;;;;;;;4.15;100.00;97263.69;5072862;28;20229;-69
2021/01/05 00:17:32;;;;;;;25.47;17.63;;;;;;;4.22;100.00;97271.41;5072412;28;20225;-70
2021/01/05 00:19:58;;;;;;;25.20;17.23;;;;;;;4.23;100.00;97267.56;5080395;28;20291;-70
2021/01/05 00:22:24;;;;;;;25.93;17.30;;;;;;;4.23;100.00;97267.56;5093146;28;20208;-70
2021/01/05 00:24:50;;;;;;;28.17;18.00;;;;;;;4.13;100.00;97269.47;5092759;28;20202;-69
2021/01/05 00:27:16;;;;;;;27.13;17.03;;;;;;;4.22;100.00;97266.75;5093003;28;20232;-69
2021/01/05 00:29:42;;;;;;;24.33;16.37;;;;;;;4.20;100.00;97269.00;5092623;28;20300;-69
2021/01/05 00:32:19;;;;;;;24.33;16.23;;;;;;;4.22;100.00;97271.41;5091338;28;20258;-69
2021/01/05 00:34:45;;;;;;;24.80;16.30;;;;;;;4.07;100.00;97273.47;5092715;28;20331;-68
2021/01/05 00:37:19;;;;;;;25.17;16.60;;;;;;;3.91;100.00;97272.28;5092591;28;20221;-69
2021/01/05 00:39:45;;;;;;;23.80;16.17;;;;;;;4.11;100.00;97274.44;5092804;28;20590;-69
2021/01/05 00:42:12;;;;;;;25.53;16.60;;;;;;;4.19;100.00;97272.06;5092774;28;20208;-69
2021/01/05 00:44:38;;;;;;;22.73;16.10;;;;;;;4.32;100.00;97266.47;5092340;28;20239;-69
2021/01/05 00:47:05;;;;;;;23.20;16.10;;;;;;;4.36;100.00;97269.38;5092424;28;20311;-69
2021/01/05 00:49:31;;;;;;;23.80;16.33;;;;;;;4.29;100.00;97271.75;5092476;28;20251;-70
2021/01/05 00:51:58;;;;;;;23.60;16.17;;;;;;;4.26;100.00;97267.72;5092632;28;20576;-69
2021/01/05 00:54:29;;;;;;;22.47;15.60;;;;;;;4.34;100.00;97274.34;5092295;28;20224;-69
2021/01/05 00:57:08;;;;;;;27.27;16.07;;;;;;;4.35;100.00;97281.41;5092101;28;20263;-70
2021/01/05 01:33:50;;;;;;;29.87;18.17;;;;;;;3.99;100.00;97285.19;5109541;27;20552;-69
2021/01/05 01:36:18;;;;;;;29.00;18.70;;;;;;;3.85;100.00;97292.63;5109543;28;20224;-69
2021/01/05 01:38:44;;;;;;;29.83;18.97;;;;;;;3.91;100.00;97296.84;5109230;28;20672;-69
2021/01/05 01:41:16;;;;;;;30.47;18.60;;;;;;;3.21;100.00;97293.28;5109934;28;20200;-69
2021/01/05 01:43:45;;;;;;;30.87;17.90;;;;;;;3.19;100.00;97298.22;5109177;28;20234;-69
2021/01/05 01:46:12;;;;;;;30.17;18.77;;;;;;;3.34;100.00;97294.31;5109399;28;20251;-69
2021/01/05 01:48:38;;;;;;;31.77;18.73;;;;;;;3.08;100.00;97297.66;5109244;28;20210;-69
2021/01/05 01:51:08;;;;;;;28.27;17.73;;;;;;;2.81;100.00;97296.97;5107937;28;20693;-69
2021/01/05 01:53:49;;;;;;;30.23;18.73;;;;;;;2.91;100.00;97296.72;5109148;28;20262;-70
2021/01/05 01:56:37;;;;;;;32.03;19.27;;;;;;;3.01;100.00;97299.22;5109296;28;20310;-70
2021/01/05 01:59:25;;;;;;;30.83;19.40;;;;;;;3.31;100.00;97305.81;5109069;28;20219;-68
2021/01/05 02:02:04;;;;;;;31.93;19.83;;;;;;;3.15;100.00;97307.31;5109280;28;20223;-69
2021/01/05 02:04:42;;;;;;;33.57;19.37;;;;;;;2.72;100.00;97296.88;5108849;28;20644;-69
2021/01/05 02:07:43;;;;;;;32.00;18.47;;;;;;;3.16;100.00;97293.38;5108920;28;20228;-70
2021/01/05 02:10:24;;;;;;;31.83;19.40;;;;;;;2.69;100.00;97299.41;5108675;28;20644;-70
2021/01/05 02:13:11;;;;;;;30.47;19.30;;;;;;;2.57;100.00;97302.69;5088384;28;20225;-69
2021/01/05 02:16:02;;;;;;;29.17;19.10;;;;;;;3.04;100.00;97299.41;5088366;28;20204;-69
2021/01/05 02:18:37;;;;;;;29.10;18.70;;;;;;;2.86;100.00;97294.94;5088549;28;20211;-69
2021/01/05 02:21:22;;;;;;;29.13;18.47;;;;;;;3.08;100.00;97292.19;5105176;28;20206;-69
2021/01/05 02:24:03;;;;;;;29.83;19.37;;;;;;;2.81;100.00;97297.75;5108644;28;20199;-70
2021/01/05 02:26:40;;;;;;;30.37;19.37;;;;;;;3.33;100.00;97295.41;5108467;28;20233;-70
2021/01/05 02:29:12;;;;;;;30.40;20.13;;;;;;;2.80;100.00;97292.63;5108719;28;20306;-70
2021/01/05 02:32:07;;;;;;;32.03;20.43;;;;;;;2.68;100.00;97287.72;5107289;28;20293;-71
2021/01/05 02:35:29;;;;;;;30.27;19.30;;;;;;;2.72;100.00;97294.16;5107705;28;20208;-69
2021/01/05 02:38:35;;;;;;;30.30;19.87;;;;;;;2.74;100.00;97291.13;5104113;28;20259;-69
2021/01/05 02:41:16;;;;;;;30.17;19.23;;;;;;;2.70;100.00;97290.94;5108588;28;20210;-69
2021/01/05 02:44:19;;;;;;;31.10;19.60;;;;;;;2.77;100.00;97285.88;5103280;28;20232;-69
2021/01/05 02:47:10;;;;;;;30.63;18.83;;;;;;;2.54;100.00;97286.13;5093086;28;20223;-69
2021/01/05 02:49:44;;;;;;;29.57;18.87;;;;;;;2.68;100.00;97278.75;5094377;28;20307;-69
2021/01/05 02:52:32;;;;;;;30.33;19.63;;;;;;;2.70;100.00;97287.44;5093507;28;20311;-70
2021/01/05 02:55:26;;;;;;;30.67;19.93;;;;;;;2.77;100.00;97276.91;5094440;28;20232;-70
2021/01/05 02:58:10;;;;;;;28.13;18.70;;;;;;;2.89;100.00;97279.88;5094057;28;20243;-69
2021/01/05 03:01:15;;;;;;;33.97;20.20;;;;;;;3.22;100.00;97273.06;5094641;28;20300;-69
2021/01/05 03:03:45;;;;;;;29.30;19.57;;;;;;;3.43;100.00;97271.41;5085812;28;20876;-69
2021/01/05 03:06:19;;;;;;;30.33;19.70;;;;;;;3.27;100.00;97266.66;5094094;28;20224;-69
2021/01/05 03:09:03;;;;;;;31.33;20.03;;;;;;;3.30;100.00;97261.41;5094073;28;20291;-69
2021/01/05 03:11:43;;;;;;;29.57;19.37;;;;;;;3.33;100.00;97262.69;5084373;28;20212;-70
2021/01/05 03:14:13;;;;;;;32.40;19.73;;;;;;;2.93;100.00;97250.91;5073899;28;20205;-70
2021/01/05 03:16:48;;;;;;;30.97;19.37;;;;;;;3.29;100.00;97273.41;5073656;28;20264;-69
2021/01/05 03:19:33;;;;;;;30.67;18.70;;;;;;;3.24;100.00;97261.84;5075126;28;20247;-69
2021/01/05 03:22:06;;;;;;;32.47;20.40;;;;;;;3.27;100.00;97267.47;5094174;28;20254;-69
2021/01/05 03:24:33;;;;;;;28.57;18.87;;;;;;;3.13;100.00;97250.41;5093905;28;20208;-69
2021/01/05 03:27:00;;;;;;;31.73;20.57;;;;;;;3.38;100.00;97257.91;5093798;28;20311;-69
2021/01/05 03:29:27;;;;;;;30.57;19.53;;;;;;;3.45;100.00;97252.03;5093972;28;20291;-69
2021/01/05 03:32:04;;;;;;;30.17;18.87;;;;;;;3.55;100.00;97263.47;5093596;28;20228;-69
2021/01/05 03:34:30;;;;;;;29.77;19.10;;;;;;;3.58;100.00;97262.84;5092337;28;20746;-69
2021/01/05 03:36:56;;;;;;;28.67;17.50;;;;;;;3.65;100.00;97260.47;5093639;28;20224;-69
2021/01/05 03:39:22;;;;;;;30.50;19.40;;;;;;;3.19;100.00;97256.53;5093541;28;20207;-68
2021/01/05 03:41:48;;;;;;;31.47;20.23;;;;;;;3.42;100.00;97264.38;5093884;28;20280;-69
2021/01/05 03:44:15;;;;;;;30.53;20.43;;;;;;;2.91;100.00;97266.75;5093438;28;20216;-69
2021/01/05 03:46:41;;;;;;;30.67;19.63;;;;;;;3.31;100.00;97268.47;5093533;28;20220;-69
2021/01/05 03:49:07;;;;;;;29.77;19.07;;;;;;;3.09;100.00;97263.03;5093466;28;20205;-69
2021/01/05 03:51:33;;;;;;;30.30;19.07;;;;;;;3.25;100.00;97268.94;5093401;28;20780;-69
2021/01/05 03:53:59;;;;;;;31.73;19.77;;;;;;;2.86;100.00;97262.25;5092616;28;20267;-69
2021/01/05 03:56:26;;;;;;;32.67;19.37;;;;;;;2.73;100.00;97274.00;5092285;28;20267;-69
2021/01/05 03:58:52;;;;;;;33.93;19.73;;;;;;;2.60;100.00;97265.84;5093419;28;20211;-68
2021/01/05 04:01:18;;;;;;;31.60;19.53;;;;;;;2.79;100.00;97271.97;5093542;28;20215;-68
2021/01/05 04:03:44;;;;;;;27.90;18.80;;;;;;;2.98;100.00;97273.38;5092987;28;20287;-68
2021/01/05 04:06:11;;;;;;;29.07;18.70;;;;;;;2.96;100.00;97269.34;5093134;28;20256;-69
2021/01/05 04:08:37;;;;;;;32.97;20.47;;;;;;;2.74;100.00;97269.34;5092907;28;20291;-69
2021/01/05 04:11:06;;;;;;;27.37;18.23;;;;;;;2.85;100.00;97265.25;5086834;28;20258;-69
2021/01/05 04:13:32;;;;;;;31.97;19.77;;;;;;;3.01;100.00;97280.16;5072421;28;20320;-68
2021/01/05 04:15:58;;;;;;;29.20;19.20;;;;;;;2.96;100.00;97272.06;5072666;28;20237;-69
2021/01/05 04:18:25;;;;;;;31.53;19.67;;;;;;;3.32;100.00;97278.25;5072570;28;20244;-70
2021/01/05 04:20:51;;;;;;;33.93;20.10;;;;;;;3.19;100.00;97270.97;5087443;28;20205;-70
2021/01/05 04:23:17;;;;;;;31.00;19.27;;;;;;;3.04;100.00;97280.31;5092482;28;20284;-69
2021/01/05 04:25:43;;;;;;;31.40;18.63;;;;;;;2.96;100.00;97277.53;5092525;28;20273;-69
2021/01/05 04:28:09;;;;;;;29.50;18.70;;;;;;;2.80;100.00;97282.53;5093044;28;20223;-70
2021/01/05 04:30:36;;;;;;;29.53;19.03;;;;;;;3.06;100.00;97275.38;5092624;28;20193;-70
2021/01/05 04:33:07;;;;;;;34.33;20.07;;;;;;;2.97;100.00;97269.03;5091028;28;20228;-70
2021/01/05 04:35:33;;;;;;;34.40;18.87;;;;;;;3.43;100.00;97276.88;5092687;28;20636;-70
2021/01/05 04:37:59;;;;;;;32.03;19.43;;;;;;;3.45;100.00;97277.38;5090936;28;20785;-70
2021/01/05 04:40:26;;;;;;;31.60;19.23;;;;;;;3.51;100.00;97278.84;5092745;28;20210;-70
2021/01/05 04:43:09;;;;;;;28.07;19.07;;;;;;;3.45;100.00;97282.81;5091213;28;20232;-70
2021/01/05 04:45:44;;;;;;;33.20;20.70;;;;;;;3.47;100.00;97275.13;5092461;28;20226;-69
2021/01/05 04:48:29;;;;;;;31.10;19.13;;;;;;;3.47;100.00;97280.59;5092248;28;20291;-69
2021/01/05 04:50:59;;;;;;;29.20;19.40;;;;;;;3.51;100.00;97278.84;5092272;28;20307;-70
2021/01/05 04:53:41;;;;;;;28.70;18.13;;;;;;;3.65;100.00;97279.56;5092217;28;20228;-69
2021/01/05 04:56:13;;;;;;;29.07;19.90;;;;;;;3.51;100.00;97278.03;5092209;28;20282;-69
2021/01/05 04:59:00;;;;;;;30.33;19.50;;;;;;;3.57;100.00;97283.06;5092034;28;20269;-69
2021/01/05 05:01:33;;;;;;;33.40;19.40;;;;;;;3.60;100.00;97278.88;5092281;28;20207;-69
2021/01/05 05:04:31;;;;;;;31.17;19.00;;;;;;;3.56;100.00;97275.97;5091951;28;20227;-69
2021/01/05 05:07:33;;;;;;;28.23;18.20;;;;;;;3.40;100.00;97285.69;5091528;28;20277;-69
2021/01/05 05:10:07;;;;;;;31.13;19.63;;;;;;;3.27;100.00;97278.38;5088867;28;20239;-70
2021/01/05 05:12:58;;;;;;;30.73;19.37;;;;;;;3.48;100.00;97279.47;5073161;28;20313;-69
2021/01/05 05:15:37;;;;;;;29.27;19.80;;;;;;;3.55;100.00;97282.56;5074151;28;20277;-68
2021/01/05 05:18:11;;;;;;;31.60;18.77;;;;;;;3.44;100.00;97285.84;5071501;28;20691;-68
2021/01/05 05:21:03;;;;;;;31.47;19.37;;;;;;;3.52;100.00;97290.56;5083373;28;20215;-68
2021/01/05 05:23:32;;;;;;;27.20;19.07;;;;;;;3.51;100.00;97289.75;5090524;28;20298;-69
2021/01/05 05:26:04;;;;;;;29.20;18.30;;;;;;;3.63;100.00;97286.47;5091571;28;20243;-69
2021/01/05 05:28:40;;;;;;;27.63;18.77;;;;;;;3.66;100.00;97289.34;5092037;28;20210;-69
2021/01/05 05:31:17;;;;;;;27.23;18.03;;;;;;;3.62;100.00;97295.75;5091672;28;20302;-69
2021/01/05 05:33:47;;;;;;;29.47;19.73;;;;;;;3.62;100.00;97295.75;5085998;28;20567;-68
2021/01/05 05:36:19;;;;;;;28.77;19.43;;;;;;;3.66;100.00;97297.53;5081135;28;20311;-68
2021/01/05 05:39:22;;;;;;;27.93;18.87;;;;;;;3.72;100.00;97293.53;5075715;28;20227;-69
2021/01/05 05:42:31;;;;;;;30.20;18.83;;;;;;;3.61;100.00;97286.75;5075734;28;20197;-69
2021/01/05 05:45:07;;;;;;;30.23;19.13;;;;;;;3.66;100.00;97291.28;5080209;28;20661;-68
2021/01/05 05:47:48;;;;;;;32.23;19.23;;;;;;;3.59;100.00;97296.38;5090351;28;20224;-68
2021/01/05 05:50:22;;;;;;;28.40;19.00;;;;;;;3.56;100.00;97292.34;5090286;28;20208;-69
2021/01/05 05:53:05;;;;;;;28.83;18.47;;;;;;;3.55;100.00;97295.38;5078280;28;20431;-68
2021/01/05 05:56:14;;;;;;;32.10;19.20;;;;;;;3.55;100.00;97296.19;5079514;28;20291;-69
2021/01/05 05:58:45;;;;;;;31.00;19.33;;;;;;;3.60;100.00;97303.44;5036362;28;20679;-69
2021/01/05 06:01:25;;;;;;;30.60;19.20;;;;;;;3.75;100.00;97303.84;5037432;28;20285;-68
2021/01/05 06:03:52;;;;;;;36.73;20.97;;;;;;;3.66;100.00;97307.66;5064223;28;20681;-68
2021/01/05 06:06:19;;;;;;;30.97;19.27;;;;;;;3.58;100.00;97306.47;5081850;28;20221;-69
2021/01/05 06:08:45;;;;;;;30.90;18.67;;;;;;;3.56;100.00;97311.44;5080203;28;20209;-69
2021/01/05 06:11:11;;;;;;;29.37;18.97;;;;;;;3.65;100.00;97308.78;5082869;28;20224;-68
2021/01/05 06:13:37;;;;;;;31.13;18.90;;;;;;;3.67;100.00;97310.06;5088783;28;20277;-70
2021/01/05 06:16:04;;;;;;;28.80;19.20;;;;;;;3.63;100.00;97309.06;5090342;28;20282;-70
2021/01/05 06:18:31;;;;;;;29.73;19.57;;;;;;;3.67;100.00;97310.06;5087559;28;20201;-70
2021/01/05 06:20:57;;;;;;;35.53;20.60;;;;;;;3.83;100.00;97307.75;5093028;28;20292;-69
2021/01/05 06:23:22;;;;;;;29.60;18.67;;;;;;;3.79;100.00;97313.03;5094027;28;20230;-68
2021/01/05 06:25:49;;;;;;;30.30;20.37;;;;;;;3.79;100.00;97310.28;5092969;28;20209;-69
2021/01/05 06:28:15;;;;;;;29.57;19.80;;;;;;;3.82;100.00;97309.66;5094080;28;20749;-70
2021/01/05 06:30:41;;;;;;;32.47;19.00;;;;;;;3.82;100.00;97312.38;5092647;28;20236;-69
2021/01/05 06:33:07;;;;;;;30.40;18.70;;;;;;;3.89;100.00;97318.19;5093120;28;20224;-69
2021/01/05 06:35:34;;;;;;;32.20;19.53;;;;;;;3.85;100.00;97322.66;5094099;28;20209;-69
2021/01/05 06:38:05;;;;;;;28.37;18.37;;;;;;;3.73;100.00;97325.19;5092776;28;20338;-69
2021/01/05 06:40:31;;;;;;;34.37;19.50;;;;;;;3.89;100.00;97320.09;5094137;28;20204;-69
2021/01/05 06:42:57;;;;;;;27.43;18.30;;;;;;;3.86;100.00;97329.75;5093132;28;20200;-69
2021/01/05 06:45:31;;;;;;;29.00;19.27;;;;;;;3.94;100.00;97331.69;5094219;28;20719;-68
2021/01/05 06:47:59;;;;;;;27.83;18.50;;;;;;;3.97;100.00;97325.63;5093426;28;20252;-68
2021/01/05 06:50:30;;;;;;;26.87;18.57;;;;;;;3.87;100.00;97331.34;5092581;28;20201;-68
2021/01/05 06:52:56;;;;;;;31.07;19.00;;;;;;;3.88;100.00;97322.03;5092065;28;20315;-68
2021/01/05 06:55:22;;;;;;;32.60;19.53;;;;;;;3.91;100.00;97326.88;5093278;28;20235;-68
2021/01/05 06:57:48;;;;;;;30.90;20.07;;;;;;;3.90;100.00;97319.81;5094380;28;20331;-69
2021/01/05 07:00:21;;;;;;;29.57;18.97;;;;;;;3.97;100.00;97330.25;5094413;28;20333;-68
2021/01/05 07:02:47;;;;;;;31.47;19.30;;;;;;;3.90;100.00;97325.28;5093292;28;20656;-69
2021/01/05 07:05:15;;;;;;;27.80;18.77;;;;;;;4.03;100.00;97329.78;5095208;28;20240;-68
2021/01/05 07:07:41;;;;;;;30.03;19.07;;;;;;;3.97;100.00;97325.63;5095256;28;20316;-68
2021/01/05 07:10:08;;;;;;;27.73;19.00;;;;;;;4.03;100.00;97335.25;5095616;28;20238;-68
2021/01/05 07:12:38;;;;;;;31.83;19.93;;;;;;;4.10;100.00;97326.63;5076004;28;20308;-69
2021/01/05 07:15:09;;;;;;;30.40;20.13;;;;;;;4.04;100.00;97334.16;5074871;28;20298;-68
2021/01/05 07:17:35;;;;;;;27.57;18.90;;;;;;;3.98;100.00;97346.31;5075067;28;20260;-69
2021/01/05 07:20:03;;;;;;;32.80;21.00;;;;;;;3.95;100.00;97340.69;5083978;28;20226;-68
2021/01/05 07:22:31;;;;;;;31.17;19.70;;;;;;;3.92;100.00;97342.09;5095665;28;20640;-69
2021/01/05 07:24:57;;;;;;;28.00;19.07;;;;;;;3.88;100.00;97343.06;5095631;28;20200;-69
2021/01/05 07:27:26;;;;;;;29.20;19.43;;;;;;;4.00;100.00;97341.34;5095277;28;20236;-69
2021/01/05 07:29:53;;;;;;;32.30;20.37;;;;;;;4.07;100.00;97344.44;5095275;28;20262;-69
2021/01/05 07:32:21;;;;;;;29.23;19.93;;;;;;;4.11;100.00;97342.69;5095074;28;20319;-69
2021/01/05 07:34:47;;;;;;;31.87;20.27;;;;;;;4.17;100.00;97345.28;5094817;28;20291;-69
2021/01/05 07:37:19;;;;;;;31.50;19.60;;;;;;;4.11;100.00;97348.16;5093567;28;20326;-69
2021/01/05 07:39:47;;;;;;;28.03;19.37;;;;;;;4.18;100.00;97357.81;5094881;28;20629;-69
2021/01/05 07:42:28;;;;;;;30.80;20.50;;;;;;;4.17;100.00;97351.53;5094598;28;20235;-68
2021/01/05 07:44:59;;;;;;;32.97;20.77;;;;;;;4.25;100.00;97350.78;5094243;28;20689;-69
2021/01/05 07:47:33;;;;;;;28.83;19.93;;;;;;;4.23;100.00;97349.47;5094133;28;20315;-69
2021/01/05 07:49:59;;;;;;;30.70;20.73;;;;;;;4.17;100.00;97356.19;5093858;28;20231;-69
2021/01/05 07:52:36;;;;;;;34.13;22.00;;;;;;;4.13;100.00;97351.38;5094404;28;20327;-69
2021/01/05 07:55:08;;;;;;;31.70;20.00;;;;;;;4.14;100.00;97347.50;5092413;28;20621;-69
2021/01/05 07:57:35;;;;;;;36.33;21.20;;;;;;;4.20;100.00;97348.16;5093353;28;20230;-69
2021/01/05 08:00:01;;;;;;;33.13;21.03;;;;;;;4.23;100.00;97347.56;5093982;28;20586;-69
2021/01/05 08:02:27;;;;;;;30.23;20.63;;;;;;;4.28;100.00;97343.88;5093274;28;20640;-68
2021/01/05 08:04:53;;;;;;;36.47;22.80;;;;;;;4.33;100.00;97350.00;5095417;28;20224;-69
2021/01/05 08:07:19;;;;;;;33.43;21.07;;;;;;;4.25;100.00;97352.69;5095123;28;20220;-69
2021/01/05 08:09:45;;;;;;;34.97;22.23;;;;;;;4.09;100.00;97349.56;5093634;28;20303;-69
2021/01/05 08:12:13;;;;;;;32.07;20.87;;;;;;;4.12;100.00;97352.47;5076522;28;20229;-68
2021/01/05 08:14:40;;;;;;;34.43;22.30;;;;;;;4.11;100.00;97352.78;5071806;28;20674;-68
2021/01/05 08:17:09;;;;;;;34.43;20.53;;;;;;;4.20;100.00;97355.59;5073087;28;20321;-68
2021/01/05 08:19:36;;;;;;;37.00;22.17;;;;;;;4.03;100.00;97350.84;5077200;28;20296;-68
2021/01/05 08:22:06;;;;;;;34.93;22.90;;;;;;;4.25;100.00;97352.69;5093141;28;20677;-70
2021/01/05 08:24:35;;;;;;;35.67;22.40;;;;;;;4.36;100.00;97354.03;5092937;28;20204;-69
2021/01/05 08:27:01;;;;;;;30.13;20.57;;;;;;;4.28;100.00;97355.59;5092842;28;20228;-69
2021/01/05 08:29:30;;;;;;;36.00;23.10;;;;;;;4.28;100.00;97362.97;5093199;28;20201;-69
2021/01/05 08:31:56;;;;;;;33.83;20.77;;;;;;;4.10;100.00;97359.38;5092147;28;20565;-70
2021/01/05 08:34:22;;;;;;;33.93;22.37;;;;;;;4.19;100.00;97362.97;5092958;28;20230;-70
2021/01/05 08:36:48;;;;;;;34.67;21.50;;;;;;;4.47;100.00;97356.13;5093034;28;20285;-69
2021/01/05 08:39:17;;;;;;;35.10;21.70;;;;;;;4.52;100.00;97360.66;5092869;28;20214;-70
2021/01/05 08:41:44;;;;;;;35.43;20.73;;;;;;;4.45;100.00;97366.59;5092693;28;20210;-70
2021/01/05 08:44:11;;;;;;;38.23;22.30;;;;;;;4.38;100.00;97365.44;5093189;28;20236;-69
2021/01/05 08:46:38;;;;;;;36.83;22.80;;;;;;;4.60;100.00;97365.34;5092780;28;20891;-69
2021/01/05 08:49:05;;;;;;;34.77;22.67;;;;;;;4.67;100.00;97357.50;5091969;28;20239;-69
2021/01/05 08:51:32;;;;;;;36.10;21.47;;;;;;;4.57;100.00;97361.31;5092654;28;20223;-68
2021/01/05 08:53:58;;;;;;;37.43;22.17;;;;;;;4.45;100.00;97363.88;5092670;28;20572;-69
2021/01/05 08:56:28;;;;;;;34.83;21.90;;;;;;;4.61;100.00;97369.69;5091616;28;20224;-69
2021/01/05 08:58:54;;;;;;;33.50;22.00;;;;;;;4.37;100.00;97366.53;5092539;28;20209;-68
2021/01/05 09:01:22;;;;;;;33.60;20.93;;;;;;;4.53;100.00;97365.00;5092857;28;20227;-68
2021/01/05 09:03:48;;;;;;;40.87;21.60;;;;;;;4.60;100.00;97370.81;5092621;28;20204;-69
2021/01/05 09:06:23;;;;;;;36.43;23.07;;;;;;;4.64;100.00;97377.22;5091106;28;20319;-70
2021/01/05 09:08:50;;;;;;;38.00;21.73;;;;;;;4.46;100.00;97370.13;5092802;28;20291;-69
2021/01/05 09:11:24;;;;;;;37.27;22.47;;;;;;;4.55;100.00;97370.94;5084000;28;20208;-69
2021/01/05 09:13:52;;;;;;;33.33;21.87;;;;;;;4.63;100.00;97361.97;5072001;28;20225;-69
2021/01/05 09:16:24;;;;;;;34.83;22.40;;;;;;;4.73;100.00;97358.94;5072122;28;20320;-69
2021/01/05 09:18:51;;;;;;;38.30;22.80;;;;;;;4.62;100.00;97358.44;5072021;28;20236;-69
2021/01/05 09:21:22;;;;;;;36.33;22.43;;;;;;;4.67;100.00;97371.16;5090434;28;20693;-70
2021/01/05 09:23:52;;;;;;;39.20;22.73;;;;;;;4.68;100.00;97378.22;5092456;28;20626;-69
2021/01/05 09:26:22;;;;;;;35.27;21.37;;;;;;;4.81;100.00;97377.28;5091776;28;20246;-68
2021/01/05 09:28:49;;;;;;;35.40;22.33;;;;;;;4.85;100.00;97389.19;5092428;28;20204;-70
2021/01/05 09:31:16;;;;;;;36.10;23.23;;;;;;;4.91;100.00;97385.16;5092017;28;20227;-70
2021/01/05 09:33:42;;;;;;;39.40;22.97;;;;;;;4.92;100.00;97387.59;5092254;28;20258;-70
2021/01/05 09:36:10;;;;;;;33.50;22.40;;;;;;;4.95;100.00;97386.13;5092995;28;20315;-69
2021/01/05 09:38:38;;;;;;;36.70;23.50;;;;;;;4.95;100.00;97384.22;5091848;28;20300;-69
2021/01/05 09:41:04;;;;;;;36.20;22.97;;;;;;;4.96;100.00;97385.03;5092139;28;20293;-69
2021/01/05 09:43:30;;;;;;;38.03;22.63;;;;;;;4.99;100.00;97389.84;5090737;28;20201;-70
2021/01/05 09:45:56;;;;;;;38.57;22.20;;;;;;;5.04;100.00;97382.31;5092059;28;20204;-69
2021/01/05 09:48:22;;;;;;;44.63;22.90;;;;;;;4.95;100.00;97377.94;5091827;28;20204;-70
2021/01/05 09:50:49;;;;;;;38.63;22.17;;;;;;;4.86;100.00;97379.84;5091735;28;20253;-70
2021/01/05 09:53:15;;;;;;;33.77;22.30;;;;;;;5.03;100.00;97380.72;5091242;28;20709;-70
2021/01/05 09:55:44;;;;;;;35.23;21.60;;;;;;;4.95;100.00;97388.88;5095638;28;20227;-70
2021/01/05 09:58:10;;;;;;;34.37;22.07;;;;;;;4.98;100.00;97380.84;5095264;28;20622;-70
2021/01/05 10:00:36;;;;;;;37.50;23.33;;;;;;;5.08;100.00;97371.53;5094358;28;20204;-70
2021/01/05 10:03:05;;;;;;;36.27;22.60;;;;;;;4.96;100.00;97371.38;5095272;28;20861;-70
2021/01/05 10:05:31;;;;;;;35.27;23.00;;;;;;;4.92;100.00;97373.94;5095808;28;20313;-70
2021/01/05 10:07:57;;;;;;;35.53;22.77;;;;;;;5.01;100.00;97366.53;5092036;28;20694;-71
2021/01/05 10:10:26;;;;;;;36.40;22.40;;;;;;;5.08;100.00;97366.06;5083193;28;20278;-70
2021/01/05 10:12:55;;;;;;;37.00;23.23;;;;;;;5.10;100.00;97366.53;5082086;28;20220;-69
2021/01/05 10:15:24;;;;;;;34.87;22.77;;;;;;;5.16;100.00;97373.47;5086322;28;20256;-70
2021/01/05 10:17:51;;;;;;;34.97;21.97;;;;;;;5.17;100.00;97361.41;5089592;28;20313;-70
2021/01/05 10:20:21;;;;;;;38.63;23.40;;;;;;;5.23;100.00;97370.25;5094447;28;20236;-70
2021/01/05 10:22:48;;;;;;;37.83;22.80;;;;;;;5.15;100.00;97360.91;5094648;28;20291;-70
2021/01/05 10:25:14;;;;;;;37.00;23.83;;;;;;;5.22;100.00;97366.69;5094328;28;20244;-70
2021/01/05 10:27:40;;;;;;;41.10;23.70;;;;;;;5.20;100.00;97365.44;5094446;28;20239;-69
2021/01/05 10:30:10;;;;;;;41.53;24.00;;;;;;;5.24;100.00;97358.97;5094244;28;20208;-71
2021/01/05 10:32:36;;;;;;;37.47;22.97;;;;;;;5.34;100.00;97352.38;5094505;28;20208;-70
2021/01/05 10:35:03;;;;;;;45.50;24.77;;;;;;;5.41;100.00;97353.50;5092689;28;20748;-70
2021/01/05 10:37:29;;;;;;;40.33;23.67;;;;;;;5.53;100.00;97353.66;5094264;28;20312;-70
2021/01/05 10:40:05;;;;;;;40.90;23.00;;;;;;;5.58;100.00;97348.03;5094349;28;20299;-70
2021/01/05 10:42:32;;;;;;;42.87;24.80;;;;;;;5.65;100.00;97342.06;5085553;28;20746;-70
2021/01/05 10:44:59;;;;;;;42.57;24.03;;;;;;;5.72;100.00;97337.69;5071195;28;20205;-70
2021/01/05 10:47:26;;;;;;;38.47;24.07;;;;;;;5.71;100.00;97347.00;5074698;28;20642;-70
2021/01/05 10:49:54;;;;;;;39.20;22.70;;;;;;;5.26;100.00;97343.06;5093881;28;20204;-70
2021/01/05 10:52:20;;;;;;;42.67;24.80;;;;;;;4.96;100.00;97350.28;5092499;28;20737;-71
2021/01/05 10:54:48;;;;;;;42.80;24.33;;;;;;;5.29;100.00;97350.63;5093209;28;20205;-70
2021/01/05 10:57:14;;;;;;;46.20;25.13;;;;;;;5.03;100.00;97352.56;5093858;28;20752;-69
2021/01/05 10:59:41;;;;;;;43.00;24.50;;;;;;;5.20;100.00;97346.28;5094191;28;20205;-69
2021/01/05 11:02:09;;;;;;;50.53;27.10;;;;;;;5.18;100.00;97348.53;5090760;28;20744;-70
2021/01/05 11:04:36;;;;;;;42.33;23.07;;;;;;;5.22;100.00;97344.03;5092116;28;20201;-70
2021/01/05 11:07:11;;;;;;;48.50;26.20;;;;;;;5.15;100.00;97344.50;5093284;28;20224;-70
2021/01/05 11:09:38;;;;;;;44.37;26.03;;;;;;;5.12;100.00;97345.16;5091813;28;20276;-70
2021/01/05 11:12:09;;;;;;;46.83;27.50;;;;;;;4.92;100.00;97346.59;5093090;28;20681;-70
2021/01/05 11:14:35;;;;;;;48.73;26.40;;;;;;;4.79;100.00;97344.00;5091584;28;20227;-70
2021/01/05 11:17:01;;;;;;;46.47;26.00;;;;;;;4.61;100.00;97347.81;5093231;28;20216;-69
2021/01/05 11:19:27;;;;;;;46.80;25.77;;;;;;;4.55;100.00;97346.34;5092895;28;20722;-69
2021/01/05 11:21:56;;;;;;;51.40;27.47;;;;;;;4.39;100.00;97342.47;5093053;28;20550;-69
2021/01/05 11:24:24;;;;;;;44.73;26.67;;;;;;;4.70;100.00;97346.72;5091132;28;20291;-69
2021/01/05 11:26:50;;;;;;;43.70;25.80;;;;;;;4.75;100.00;97332.91;5091831;28;20307;-70
2021/01/05 11:29:18;;;;;;;46.27;25.50;;;;;;;4.47;100.00;97339.75;5092010;28;20208;-70
2021/01/05 11:31:45;;;;;;;47.83;25.70;;;;;;;4.60;100.00;97338.03;5092966;28;20220;-70
2021/01/05 11:34:11;;;;;;;45.33;26.20;;;;;;;4.71;100.00;97336.56;5092423;28;20224;-70
2021/01/05 11:36:40;;;;;;;45.93;25.77;;;;;;;4.67;100.00;97338.38;5070979;28;20233;-71
2021/01/05 11:39:06;;;;;;;52.43;26.97;;;;;;;4.72;100.00;97330.00;5072801;28;20205;-70
2021/01/05 11:41:37;;;;;;;42.30;24.50;;;;;;;4.82;100.00;97332.41;5071522;28;20693;-70
2021/01/05 11:44:05;;;;;;;44.50;25.93;;;;;;;4.85;100.00;97327.13;5071852;28;20242;-70
2021/01/05 11:46:34;;;;;;;43.00;24.93;;;;;;;4.73;100.00;97326.13;5071036;28;20257;-70
2021/01/05 11:49:00;;;;;;;40.40;23.47;;;;;;;4.83;100.00;97320.38;5072146;28;20210;-70
2021/01/05 11:51:33;;;;;;;46.90;26.53;;;;;;;5.06;100.00;97319.91;5076176;28;20207;-69
2021/01/05 11:53:59;;;;;;;44.43;25.37;;;;;;;5.07;100.00;97315.25;5080930;28;20263;-67
2021/01/05 11:56:28;;;;;;;43.10;24.90;;;;;;;5.02;100.00;97312.66;5088724;28;21074;-67
2021/01/05 11:58:55;;;;;;;50.43;27.63;;;;;;;4.97;100.00;97310.09;5091144;28;20208;-67
2021/01/05 12:01:22;;;;;;;46.40;26.70;;;;;;;4.97;100.00;97307.34;5091875;28;20283;-68
2021/01/05 12:03:48;;;;;;;47.60;27.87;;;;;;;5.23;100.00;97299.94;5091175;28;20236;-69
2021/01/05 12:06:20;;;;;;;48.60;25.63;;;;;;;5.32;100.00;97299.94;5091410;28;20315;-69
2021/01/05 12:08:47;;;;;;;40.70;25.50;;;;;;;5.22;100.00;97290.13;5091231;28;20287;-68